createdAt,value
2018-03-30T00:00:41.041Z,997.83
2018-03-30T00:01:41.068Z,997.79
2018-03-30T00:02:41.007Z,997.77
2018-03-30T00:03:41.011Z,997.73
2018-03-30T00:04:40.932Z,997.71
2018-03-30T00:05:40.891Z,997.72
2018-03-30T00:06:40.961Z,997.71
2018-03-30T00:07:40.860Z,997.68
2018-03-30T00:08:40.827Z,997.72
2018-03-30T00:09:40.895Z,997.69
2018-03-30T00:10:40.812Z,997.68
2018-03-30T00:11:40.787Z,997.67
2018-03-30T00:12:40.749Z,997.68
2018-03-30T00:13:40.725Z,997.67
2018-03-30T00:14:40.756Z,997.66
2018-03-30T00:15:40.671Z,997.62
2018-03-30T00:16:40.696Z,997.63
2018-03-30T00:17:40.626Z,997.65
2018-03-30T00:18:40.652Z,997.64
2018-03-30T00:19:40.581Z,997.66
2018-03-30T00:20:40.560Z,997.58
2018-03-30T00:21:40.596Z,997.59
2018-03-30T00:22:40.581Z,997.58
2018-03-30T00:23:40.501Z,997.59
2018-03-30T00:24:40.486Z,997.57
2018-03-30T00:25:40.486Z,997.58
2018-03-30T00:26:40.460Z,997.56
2018-03-30T00:27:40.462Z,997.56
2018-03-30T00:28:40.393Z,997.55
2018-03-30T00:29:40.478Z,997.53
2018-03-30T00:30:40.342Z,997.52
2018-03-30T00:31:40.356Z,997.53
2018-03-30T00:32:40.325Z,997.52
2018-03-30T00:33:40.305Z,997.45
2018-03-30T00:34:40.277Z,997.46
2018-03-30T00:35:40.394Z,997.43
2018-03-30T00:36:40.254Z,997.43
2018-03-30T00:37:40.217Z,997.44
2018-03-30T00:38:40.215Z,997.43
2018-03-30T00:39:40.270Z,997.42
2018-03-30T00:40:40.176Z,997.39
2018-03-30T00:41:40.153Z,997.43
2018-03-30T00:42:40.084Z,997.41
2018-03-30T00:43:40.105Z,997.4
2018-03-30T00:44:40.094Z,997.38
2018-03-30T00:45:40.021Z,997.4
2018-03-30T00:46:40.067Z,997.41
2018-03-30T00:47:40.040Z,997.38
2018-03-30T00:48:40.031Z,997.37
2018-03-30T00:49:39.948Z,997.39
2018-03-30T00:50:39.912Z,997.41
2018-03-30T00:51:39.907Z,997.38
2018-03-30T00:52:39.887Z,997.36
2018-03-30T00:53:39.856Z,997.35
2018-03-30T00:54:39.833Z,997.37
2018-03-30T00:55:39.823Z,997.34
2018-03-30T00:56:39.787Z,997.3
2018-03-30T00:57:39.771Z,997.28
2018-03-30T00:58:39.775Z,997.34
2018-03-30T00:59:39.747Z,997.34
2018-03-30T01:00:39.741Z,997.33
2018-03-30T01:01:39.728Z,997.29
2018-03-30T01:02:39.774Z,997.3
2018-03-30T01:03:39.719Z,997.28
2018-03-30T01:04:39.662Z,997.29
2018-03-30T01:05:39.620Z,997.29
2018-03-30T01:06:39.647Z,997.28
2018-03-30T01:07:39.576Z,997.31
2018-03-30T01:08:39.530Z,997.28
2018-03-30T01:09:39.499Z,997.27
2018-03-30T01:10:39.482Z,997.27
2018-03-30T01:11:39.455Z,997.24
2018-03-30T01:12:39.433Z,997.21
2018-03-30T01:13:39.413Z,997.25
2018-03-30T01:14:39.397Z,997.23
2018-03-30T01:15:39.371Z,997.21
2018-03-30T01:16:39.348Z,997.21
2018-03-30T01:17:39.329Z,997.23
2018-03-30T01:18:39.305Z,997.22
2018-03-30T01:19:39.283Z,997.21
2018-03-30T01:20:39.264Z,997.17
2018-03-30T01:21:39.238Z,997.16
2018-03-30T01:22:39.217Z,997.15
2018-03-30T01:23:39.196Z,997.18
2018-03-30T01:24:39.189Z,997.18
2018-03-30T01:25:39.153Z,997.14
2018-03-30T01:26:39.132Z,997.1
2018-03-30T01:27:39.110Z,997.12
2018-03-30T01:28:39.090Z,997.13
2018-03-30T01:29:39.068Z,997.13
2018-03-30T01:30:39.049Z,997.11
2018-03-30T01:31:39.027Z,997.1
2018-03-30T01:32:39.004Z,997.13
2018-03-30T01:33:38.980Z,997.08
2018-03-30T01:34:38.960Z,997.04
2018-03-30T01:35:38.940Z,997.03
2018-03-30T01:36:38.918Z,997.05
2018-03-30T01:37:38.904Z,997.03
2018-03-30T01:38:38.915Z,997.05
2018-03-30T01:39:38.921Z,997.06
2018-03-30T01:40:38.890Z,997.03
2018-03-30T01:41:38.835Z,997.03
2018-03-30T01:42:38.843Z,997
2018-03-30T01:43:38.802Z,997.01
2018-03-30T01:44:38.768Z,997
2018-03-30T01:45:38.759Z,996.97
2018-03-30T01:46:38.718Z,997
2018-03-30T01:47:38.696Z,996.93
2018-03-30T01:48:38.709Z,997
2018-03-30T01:49:38.691Z,996.92
2018-03-30T01:50:38.657Z,996.91
2018-03-30T01:51:38.624Z,996.95
2018-03-30T01:52:38.640Z,996.91
2018-03-30T01:53:38.630Z,996.94
2018-03-30T01:54:38.582Z,996.92
2018-03-30T01:55:38.573Z,996.93
2018-03-30T01:56:38.523Z,996.88
2018-03-30T01:57:38.502Z,996.92
2018-03-30T01:58:38.470Z,996.9
2018-03-30T01:59:38.442Z,996.93
2018-03-30T02:00:38.463Z,996.87
2018-03-30T02:01:38.416Z,996.9
2018-03-30T02:02:38.390Z,996.87
2018-03-30T02:03:38.362Z,996.89
2018-03-30T02:04:38.333Z,996.86
2018-03-30T02:05:38.517Z,996.85
2018-03-30T02:06:38.490Z,996.84
2018-03-30T02:07:38.276Z,996.81
2018-03-30T02:08:38.257Z,996.8
2018-03-30T02:09:38.235Z,996.77
2018-03-30T02:10:38.264Z,996.82
2018-03-30T02:11:38.176Z,996.75
2018-03-30T02:12:38.163Z,996.79
2018-03-30T02:13:38.167Z,996.78
2018-03-30T02:14:38.139Z,996.78
2018-03-30T02:15:38.100Z,996.75
2018-03-30T02:16:38.114Z,996.81
2018-03-30T02:17:38.059Z,996.81
2018-03-30T02:18:38.039Z,996.78
2018-03-30T02:19:38.023Z,996.8
2018-03-30T02:20:37.995Z,996.77
2018-03-30T02:21:37.962Z,996.77
2018-03-30T02:22:37.945Z,996.74
2018-03-30T02:23:37.931Z,996.7
2018-03-30T02:24:37.954Z,996.69
2018-03-30T02:25:37.894Z,996.7
2018-03-30T02:26:37.890Z,996.71
2018-03-30T02:27:37.860Z,996.73
2018-03-30T02:28:37.856Z,996.74
2018-03-30T02:29:37.857Z,996.7
2018-03-30T02:30:37.795Z,996.72
2018-03-30T02:31:37.757Z,996.7
2018-03-30T02:32:37.761Z,996.73
2018-03-30T02:33:37.739Z,996.69
2018-03-30T02:34:37.712Z,996.7
2018-03-30T02:35:37.673Z,996.71
2018-03-30T02:36:37.705Z,996.73
2018-03-30T02:37:37.650Z,996.75
2018-03-30T02:38:37.622Z,996.75
2018-03-30T02:39:37.592Z,996.72
2018-03-30T02:40:37.577Z,996.75
2018-03-30T02:41:37.542Z,996.73
2018-03-30T02:42:37.531Z,996.76
2018-03-30T02:43:37.512Z,996.74
2018-03-30T02:44:37.508Z,996.73
2018-03-30T02:45:37.466Z,996.69
2018-03-30T02:46:37.445Z,996.71
2018-03-30T02:47:37.421Z,996.7
2018-03-30T02:48:37.408Z,996.69
2018-03-30T02:49:37.424Z,996.66
2018-03-30T02:50:37.368Z,996.69
2018-03-30T02:51:37.362Z,996.68
2018-03-30T02:52:37.359Z,996.68
2018-03-30T02:53:37.299Z,996.66
2018-03-30T02:54:37.299Z,996.68
2018-03-30T02:55:37.299Z,996.67
2018-03-30T02:56:37.268Z,996.68
2018-03-30T02:57:37.238Z,996.66
2018-03-30T02:58:37.222Z,996.65
2018-03-30T02:59:37.213Z,996.62
2018-03-30T03:00:37.160Z,996.66
2018-03-30T03:01:37.131Z,996.63
2018-03-30T03:02:37.140Z,996.61
2018-03-30T03:03:37.113Z,996.55
2018-03-30T03:04:37.097Z,996.58
2018-03-30T03:05:37.104Z,996.58
2018-03-30T03:06:37.042Z,996.57
2018-03-30T03:07:37.058Z,996.53
2018-03-30T03:08:36.985Z,996.57
2018-03-30T03:09:36.992Z,996.51
2018-03-30T03:10:36.975Z,996.5
2018-03-30T03:11:36.918Z,996.48
2018-03-30T03:12:36.907Z,996.5
2018-03-30T03:13:36.922Z,996.44
2018-03-30T03:14:36.882Z,996.42
2018-03-30T03:15:36.846Z,996.39
2018-03-30T03:16:36.840Z,996.38
2018-03-30T03:17:36.807Z,996.36
2018-03-30T03:18:36.784Z,996.36
2018-03-30T03:19:36.759Z,996.33
2018-03-30T03:20:36.752Z,996.34
2018-03-30T03:21:36.725Z,996.32
2018-03-30T03:22:36.703Z,996.3
2018-03-30T03:23:36.701Z,996.26
2018-03-30T03:24:36.667Z,996.24
2018-03-30T03:25:36.642Z,996.23
2018-03-30T03:26:36.628Z,996.26
2018-03-30T03:27:36.597Z,996.25
2018-03-30T03:28:36.580Z,996.22
2018-03-30T03:29:36.557Z,996.21
2018-03-30T03:30:36.545Z,996.19
2018-03-30T03:31:36.565Z,996.18
2018-03-30T03:32:36.496Z,996.16
2018-03-30T03:33:36.510Z,996.15
2018-03-30T03:34:36.462Z,996.2
2018-03-30T03:35:36.428Z,996.21
2018-03-30T03:36:36.410Z,996.21
2018-03-30T03:37:36.402Z,996.24
2018-03-30T03:38:36.377Z,996.18
2018-03-30T03:39:36.365Z,996.17
2018-03-30T03:40:36.348Z,996.18
2018-03-30T03:41:36.314Z,996.22
2018-03-30T03:42:36.290Z,996.2
2018-03-30T03:43:36.262Z,996.17
2018-03-30T03:44:36.258Z,996.15
2018-03-30T03:45:36.253Z,996.16
2018-03-30T03:46:36.207Z,996.13
2018-03-30T03:47:36.199Z,996.12
2018-03-30T03:48:36.163Z,996.11
2018-03-30T03:49:36.135Z,996.1
2018-03-30T03:50:36.134Z,996.1
2018-03-30T03:51:36.122Z,996.07
2018-03-30T03:52:36.076Z,996.07
2018-03-30T03:53:36.065Z,996.1
2018-03-30T03:54:36.065Z,996.09
2018-03-30T03:55:36.018Z,996.1
2018-03-30T03:56:36.009Z,996.09
2018-03-30T03:57:36.027Z,996.07
2018-03-30T03:58:35.956Z,996.04
2018-03-30T03:59:35.922Z,996.1
2018-03-30T04:00:35.926Z,996.07
2018-03-30T04:01:35.891Z,996.05
2018-03-30T04:02:35.884Z,996.04
2018-03-30T04:03:35.852Z,996.05
2018-03-30T04:04:35.845Z,996.04
2018-03-30T04:05:35.810Z,996.05
2018-03-30T04:06:35.795Z,996.05
2018-03-30T04:07:35.814Z,996.03
2018-03-30T04:08:35.770Z,996.06
2018-03-30T04:09:35.728Z,996.05
2018-03-30T04:10:35.691Z,996.05
2018-03-30T04:11:35.685Z,996.04
2018-03-30T04:12:35.729Z,996.04
2018-03-30T04:13:35.641Z,996.06
2018-03-30T04:14:35.646Z,996.04
2018-03-30T04:15:35.608Z,996.05
2018-03-30T04:16:35.576Z,996.04
2018-03-30T04:17:35.580Z,996.03
2018-03-30T04:18:35.553Z,996.01
2018-03-30T04:19:35.521Z,996.02
2018-03-30T04:20:35.487Z,996.01
2018-03-30T04:21:35.486Z,996.01
2018-03-30T04:22:35.458Z,996.03
2018-03-30T04:23:35.443Z,995.98
2018-03-30T04:24:35.429Z,995.99
2018-03-30T04:25:35.392Z,995.96
2018-03-30T04:26:35.415Z,995.94
2018-03-30T04:27:35.343Z,995.95
2018-03-30T04:28:35.333Z,995.97
2018-03-30T04:29:35.338Z,995.93
2018-03-30T04:30:35.282Z,995.91
2018-03-30T04:31:35.256Z,995.88
2018-03-30T04:32:35.238Z,995.89
2018-03-30T04:33:35.221Z,995.91
2018-03-30T04:34:35.197Z,995.89
2018-03-30T04:35:35.189Z,995.9
2018-03-30T04:36:35.154Z,995.89
2018-03-30T04:37:35.134Z,995.93
2018-03-30T04:38:35.112Z,995.89
2018-03-30T04:39:35.090Z,995.87
2018-03-30T04:40:35.080Z,995.93
2018-03-30T04:41:35.050Z,995.84
2018-03-30T04:42:35.027Z,995.81
2018-03-30T04:43:35.008Z,995.81
2018-03-30T04:44:34.987Z,995.78
2018-03-30T04:45:34.967Z,995.77
2018-03-30T04:46:34.946Z,995.82
2018-03-30T04:47:34.929Z,995.75
2018-03-30T04:48:34.907Z,995.79
2018-03-30T04:49:34.885Z,995.81
2018-03-30T04:50:34.864Z,995.78
2018-03-30T04:51:34.841Z,995.76
2018-03-30T04:52:34.824Z,995.77
2018-03-30T04:53:34.802Z,995.77
2018-03-30T04:54:34.781Z,995.81
2018-03-30T04:55:34.759Z,995.79
2018-03-30T04:56:34.739Z,995.79
2018-03-30T04:57:34.717Z,995.76
2018-03-30T04:58:34.700Z,995.76
2018-03-30T04:59:34.676Z,995.78
2018-03-30T05:00:34.655Z,995.79
2018-03-30T05:01:34.637Z,995.83
2018-03-30T05:02:34.616Z,995.74
2018-03-30T05:03:34.597Z,995.76
2018-03-30T05:04:34.576Z,995.76
2018-03-30T05:05:34.553Z,995.8
2018-03-30T05:06:34.535Z,995.82
2018-03-30T05:07:34.511Z,995.79
2018-03-30T05:08:34.495Z,995.79
2018-03-30T05:09:34.472Z,995.82
2018-03-30T05:10:34.449Z,995.78
2018-03-30T05:11:34.433Z,995.84
2018-03-30T05:12:34.408Z,995.76
2018-03-30T05:13:34.388Z,995.78
2018-03-30T05:14:34.370Z,995.81
2018-03-30T05:15:34.344Z,995.78
2018-03-30T05:16:34.360Z,995.83
2018-03-30T05:17:34.307Z,995.83
2018-03-30T05:18:34.287Z,995.82
2018-03-30T05:19:34.265Z,995.84
2018-03-30T05:20:34.244Z,995.87
2018-03-30T05:21:34.223Z,995.85
2018-03-30T05:22:34.202Z,995.88
2018-03-30T05:23:34.183Z,995.91
2018-03-30T05:24:34.160Z,995.86
2018-03-30T05:25:34.142Z,995.86
2018-03-30T05:26:34.121Z,995.89
2018-03-30T05:27:34.106Z,995.88
2018-03-30T05:28:34.083Z,995.87
2018-03-30T05:29:34.059Z,995.89
2018-03-30T05:30:34.041Z,995.9
2018-03-30T05:31:34.017Z,995.93
2018-03-30T05:32:33.997Z,995.85
2018-03-30T05:33:33.976Z,995.87
2018-03-30T05:34:34.002Z,995.89
2018-03-30T05:35:33.936Z,995.89
2018-03-30T05:36:33.915Z,995.91
2018-03-30T05:37:33.898Z,995.95
2018-03-30T05:38:33.874Z,995.92
2018-03-30T05:39:33.854Z,995.89
2018-03-30T05:40:33.835Z,995.93
2018-03-30T05:41:33.815Z,995.9
2018-03-30T05:42:33.791Z,995.92
2018-03-30T05:43:33.770Z,995.88
2018-03-30T05:44:33.750Z,995.86
2018-03-30T05:45:33.730Z,995.87
2018-03-30T05:46:33.709Z,995.87
2018-03-30T05:47:33.689Z,995.84
2018-03-30T05:48:33.669Z,995.86
2018-03-30T05:49:33.656Z,995.85
2018-03-30T05:50:33.630Z,995.86
2018-03-30T05:51:33.609Z,995.86
2018-03-30T05:52:33.590Z,995.91
2018-03-30T05:53:33.568Z,995.95
2018-03-30T05:54:33.548Z,995.92
2018-03-30T05:55:33.528Z,995.91
2018-03-30T05:56:33.509Z,995.93
2018-03-30T05:57:33.487Z,995.92
2018-03-30T05:58:33.471Z,995.96
2018-03-30T05:59:33.453Z,995.96
2018-03-30T06:00:33.437Z,995.89
2018-03-30T06:01:33.410Z,995.9
2018-03-30T06:02:33.389Z,995.89
2018-03-30T06:03:33.365Z,995.88
2018-03-30T06:04:33.345Z,995.89
2018-03-30T06:05:33.327Z,995.89
2018-03-30T06:06:33.304Z,995.92
2018-03-30T06:07:33.493Z,995.88
2018-03-30T06:08:33.266Z,995.94
2018-03-30T06:09:33.246Z,995.91
2018-03-30T06:10:33.224Z,995.91
2018-03-30T06:11:33.205Z,995.93
2018-03-30T06:12:33.190Z,995.9
2018-03-30T06:13:33.166Z,995.91
2018-03-30T06:14:33.144Z,995.89
2018-03-30T06:15:33.130Z,995.87
2018-03-30T06:16:33.104Z,995.9
2018-03-30T06:17:33.085Z,995.89
2018-03-30T06:18:33.064Z,995.87
2018-03-30T06:19:33.044Z,995.88
2018-03-30T06:20:33.036Z,995.87
2018-03-30T06:21:33.009Z,995.89
2018-03-30T06:22:32.985Z,995.92
2018-03-30T06:23:32.965Z,995.95
2018-03-30T06:24:32.945Z,995.95
2018-03-30T06:25:32.924Z,996.01
2018-03-30T06:26:32.907Z,996.02
2018-03-30T06:27:32.884Z,996
2018-03-30T06:28:32.866Z,996.01
2018-03-30T06:29:32.844Z,996.03
2018-03-30T06:30:32.825Z,996.04
2018-03-30T06:31:32.807Z,996.02
2018-03-30T06:32:32.785Z,996.05
2018-03-30T06:33:32.771Z,996.07
2018-03-30T06:34:32.750Z,996.04
2018-03-30T06:35:32.730Z,996.04
2018-03-30T06:36:32.713Z,996.05
2018-03-30T06:37:32.688Z,996.03
2018-03-30T06:38:32.668Z,996.02
2018-03-30T06:39:32.653Z,996
2018-03-30T06:40:32.629Z,996.01
2018-03-30T06:41:32.609Z,995.99
2018-03-30T06:42:32.595Z,996.04
2018-03-30T06:43:32.578Z,996.02
2018-03-30T06:44:32.553Z,996.02
2018-03-30T06:45:32.532Z,996.04
2018-03-30T06:46:32.516Z,996
2018-03-30T06:47:32.495Z,996.06
2018-03-30T06:48:32.475Z,995.99
2018-03-30T06:49:32.455Z,995.94
2018-03-30T06:50:32.435Z,995.95
2018-03-30T06:51:32.420Z,995.95
2018-03-30T06:52:32.400Z,995.93
2018-03-30T06:53:32.377Z,995.94
2018-03-30T06:54:32.361Z,995.99
2018-03-30T06:55:32.341Z,995.97
2018-03-30T06:56:32.322Z,995.99
2018-03-30T06:57:32.310Z,995.98
2018-03-30T06:58:32.286Z,995.99
2018-03-30T06:59:32.270Z,995.96
2018-03-30T07:00:32.247Z,995.97
2018-03-30T07:01:32.231Z,995.95
2018-03-30T07:02:32.213Z,995.91
2018-03-30T07:03:32.197Z,995.9
2018-03-30T07:04:32.220Z,995.91
2018-03-30T07:05:32.155Z,995.95
2018-03-30T07:06:32.136Z,995.93
2018-03-30T07:07:32.116Z,995.9
2018-03-30T07:08:32.096Z,995.94
2018-03-30T07:09:32.079Z,995.95
2018-03-30T07:10:32.058Z,995.93
2018-03-30T07:11:32.047Z,995.97
2018-03-30T07:12:32.027Z,995.95
2018-03-30T07:13:32.012Z,995.99
2018-03-30T07:14:31.987Z,995.95
2018-03-30T07:15:31.976Z,995.96
2018-03-30T07:16:31.954Z,995.92
2018-03-30T07:17:31.931Z,995.94
2018-03-30T07:18:31.915Z,995.97
2018-03-30T07:19:31.896Z,995.97
2018-03-30T07:20:31.878Z,995.97
2018-03-30T07:21:31.863Z,995.89
2018-03-30T07:22:31.846Z,995.86
2018-03-30T07:23:31.824Z,995.92
2018-03-30T07:24:31.808Z,995.93
2018-03-30T07:25:31.792Z,995.92
2018-03-30T07:26:31.775Z,995.95
2018-03-30T07:27:31.756Z,995.95
2018-03-30T07:28:31.739Z,995.93
2018-03-30T07:29:31.720Z,995.96
2018-03-30T07:30:31.701Z,995.93
2018-03-30T07:31:31.685Z,995.97
2018-03-30T07:32:31.668Z,995.92
2018-03-30T07:33:31.650Z,995.95
2018-03-30T07:34:31.633Z,995.92
2018-03-30T07:35:31.618Z,995.93
2018-03-30T07:36:31.598Z,995.94
2018-03-30T07:37:31.586Z,995.93
2018-03-30T07:38:31.566Z,995.93
2018-03-30T07:39:31.551Z,995.95
2018-03-30T07:40:31.531Z,995.91
2018-03-30T07:41:31.515Z,995.96
2018-03-30T07:42:31.498Z,995.92
2018-03-30T07:43:31.485Z,995.95
2018-03-30T07:44:31.465Z,995.89
2018-03-30T07:45:31.449Z,995.87
2018-03-30T07:46:31.434Z,995.86
2018-03-30T07:47:31.417Z,995.85
2018-03-30T07:48:31.406Z,995.84
2018-03-30T07:49:31.385Z,995.85
2018-03-30T07:50:31.367Z,995.84
2018-03-30T07:51:31.351Z,995.81
2018-03-30T07:52:31.333Z,995.79
2018-03-30T07:53:31.322Z,995.81
2018-03-30T07:54:31.301Z,995.76
2018-03-30T07:55:31.284Z,995.75
2018-03-30T07:56:31.270Z,995.76
2018-03-30T07:57:31.255Z,995.69
2018-03-30T07:58:31.245Z,995.7
2018-03-30T07:59:31.223Z,995.73
2018-03-30T08:00:31.208Z,995.7
2018-03-30T08:01:31.192Z,995.67
2018-03-30T08:02:31.176Z,995.68
2018-03-30T08:03:31.192Z,995.66
2018-03-30T08:04:31.144Z,995.68
2018-03-30T08:05:31.131Z,995.67
2018-03-30T08:06:31.117Z,995.61
2018-03-30T08:07:31.303Z,995.6
2018-03-30T08:08:31.081Z,995.62
2018-03-30T08:09:31.068Z,995.63
2018-03-30T08:10:31.052Z,995.61
2018-03-30T08:11:31.039Z,995.58
2018-03-30T08:12:31.024Z,995.58
2018-03-30T08:13:31.006Z,995.58
2018-03-30T08:14:30.990Z,995.6
2018-03-30T08:15:30.977Z,995.57
2018-03-30T08:16:30.957Z,995.59
2018-03-30T08:17:30.942Z,995.59
2018-03-30T08:18:30.932Z,995.6
2018-03-30T08:19:30.913Z,995.64
2018-03-30T08:20:30.898Z,995.64
2018-03-30T08:21:30.885Z,995.66
2018-03-30T08:22:30.912Z,995.66
2018-03-30T08:23:30.856Z,995.67
2018-03-30T08:24:30.845Z,995.64
2018-03-30T08:25:30.825Z,995.65
2018-03-30T08:26:30.810Z,995.62
2018-03-30T08:27:30.797Z,995.62
2018-03-30T08:28:30.785Z,995.67
2018-03-30T08:29:30.768Z,995.56
2018-03-30T08:30:30.755Z,995.57
2018-03-30T08:31:30.742Z,995.57
2018-03-30T08:32:30.728Z,995.66
2018-03-30T08:33:30.717Z,995.63
2018-03-30T08:34:30.701Z,995.61
2018-03-30T08:35:30.706Z,995.61
2018-03-30T08:36:30.676Z,995.6
2018-03-30T08:37:30.664Z,995.77
2018-03-30T08:38:30.651Z,995.76
2018-03-30T08:39:30.641Z,995.82
2018-03-30T08:40:30.628Z,995.72
2018-03-30T08:41:30.614Z,995.84
2018-03-30T08:42:30.608Z,995.77
2018-03-30T08:43:30.594Z,995.7
2018-03-30T08:44:30.582Z,995.71
2018-03-30T08:45:30.573Z,995.64
2018-03-30T08:46:30.682Z,995.65
2018-03-30T08:47:30.557Z,995.67
2018-03-30T08:48:30.548Z,995.64
2018-03-30T08:49:30.541Z,995.56
2018-03-30T08:50:30.599Z,995.54
2018-03-30T08:51:30.525Z,995.61
2018-03-30T08:52:30.520Z,995.56
2018-03-30T08:53:30.510Z,995.58
2018-03-30T08:54:30.509Z,995.59
2018-03-30T08:55:30.499Z,995.57
2018-03-30T08:56:30.496Z,995.5
2018-03-30T08:57:30.487Z,995.44
2018-03-30T08:58:30.536Z,995.46
2018-03-30T08:59:30.475Z,995.45
2018-03-30T09:00:30.474Z,995.37
2018-03-30T09:01:30.509Z,995.4
2018-03-30T09:02:30.459Z,995.3
2018-03-30T09:03:30.448Z,995.32
2018-03-30T09:04:30.500Z,995.32
2018-03-30T09:05:30.437Z,995.34
2018-03-30T09:06:30.467Z,995.32
2018-03-30T09:07:30.423Z,995.3
2018-03-30T09:08:30.417Z,995.29
2018-03-30T09:09:30.418Z,995.25
2018-03-30T09:10:30.404Z,995.21
2018-03-30T09:11:30.398Z,995.17
2018-03-30T09:12:30.390Z,995.16
2018-03-30T09:13:30.386Z,995.2
2018-03-30T09:14:30.378Z,995.2
2018-03-30T09:15:30.370Z,995.14
2018-03-30T09:16:30.361Z,995.2
2018-03-30T09:17:30.358Z,995.17
2018-03-30T09:18:30.350Z,995.17
2018-03-30T09:19:30.338Z,995.26
2018-03-30T09:20:30.394Z,995.26
2018-03-30T09:21:30.321Z,995.26
2018-03-30T09:22:30.391Z,995.19
2018-03-30T09:23:30.328Z,995.14
2018-03-30T09:24:30.298Z,995.13
2018-03-30T09:25:30.298Z,995.13
2018-03-30T09:26:30.281Z,995.13
2018-03-30T09:27:30.293Z,995.05
2018-03-30T09:28:30.269Z,995.07
2018-03-30T09:29:30.257Z,994.99
2018-03-30T09:30:30.249Z,994.99
2018-03-30T09:31:30.241Z,994.91
2018-03-30T09:32:30.235Z,994.93
2018-03-30T09:33:30.223Z,994.92
2018-03-30T09:34:30.221Z,994.89
2018-03-30T09:35:30.249Z,994.89
2018-03-30T09:36:30.202Z,994.87
2018-03-30T09:37:30.190Z,994.88
2018-03-30T09:38:30.178Z,994.82
2018-03-30T09:39:30.174Z,994.91
2018-03-30T09:40:30.168Z,994.86
2018-03-30T09:41:30.158Z,994.8
2018-03-30T09:42:30.145Z,994.77
2018-03-30T09:43:30.213Z,994.7
2018-03-30T09:44:30.132Z,994.72
2018-03-30T09:45:30.123Z,994.76
2018-03-30T09:46:30.115Z,994.8
2018-03-30T09:47:30.106Z,994.79
2018-03-30T09:48:30.101Z,994.74
2018-03-30T09:49:30.089Z,994.77
2018-03-30T09:50:30.077Z,994.7
2018-03-30T09:51:30.069Z,994.67
2018-03-30T09:52:30.060Z,994.68
2018-03-30T09:53:30.053Z,994.65
2018-03-30T09:54:30.047Z,994.64
2018-03-30T09:55:30.040Z,994.63
2018-03-30T09:56:30.028Z,994.69
2018-03-30T09:57:30.028Z,994.63
2018-03-30T09:58:30.026Z,994.54
2018-03-30T09:59:30.009Z,994.56
2018-03-30T10:00:29.992Z,994.56
2018-03-30T10:01:30.081Z,994.57
2018-03-30T10:02:29.984Z,994.51
2018-03-30T10:03:29.971Z,994.46
2018-03-30T10:04:29.961Z,994.45
2018-03-30T10:05:29.957Z,994.45
2018-03-30T10:06:29.944Z,994.42
2018-03-30T10:07:30.137Z,994.42
2018-03-30T10:08:30.003Z,994.33
2018-03-30T10:09:29.919Z,994.32
2018-03-30T10:10:29.913Z,994.34
2018-03-30T10:11:29.903Z,994.36
2018-03-30T10:12:29.898Z,994.35
2018-03-30T10:13:29.914Z,994.42
2018-03-30T10:14:29.880Z,994.38
2018-03-30T10:15:29.871Z,994.37
2018-03-30T10:16:29.864Z,994.32
2018-03-30T10:17:29.863Z,994.28
2018-03-30T10:18:29.848Z,994.27
2018-03-30T10:19:29.841Z,994.26
2018-03-30T10:20:29.835Z,994.25
2018-03-30T10:21:29.826Z,994.21
2018-03-30T10:22:29.816Z,994.2
2018-03-30T10:23:29.808Z,994.16
2018-03-30T10:24:29.829Z,994.22
2018-03-30T10:25:29.792Z,994.21
2018-03-30T10:26:29.783Z,994.23
2018-03-30T10:27:29.777Z,994.23
2018-03-30T10:28:29.789Z,994.2
2018-03-30T10:29:29.760Z,994.2
2018-03-30T10:30:29.858Z,994.18
2018-03-30T10:31:29.871Z,994.17
2018-03-30T10:32:29.738Z,994.06
2018-03-30T10:33:29.749Z,994.07
2018-03-30T10:34:29.723Z,994
2018-03-30T10:35:29.717Z,994.02
2018-03-30T10:36:29.711Z,994.02
2018-03-30T10:37:29.721Z,994.01
2018-03-30T10:38:29.697Z,993.99
2018-03-30T10:39:29.694Z,993.98
2018-03-30T10:40:29.690Z,993.95
2018-03-30T10:41:29.680Z,993.9
2018-03-30T10:42:29.674Z,993.9
2018-03-30T10:43:29.687Z,993.86
2018-03-30T10:44:29.661Z,993.86
2018-03-30T10:45:29.655Z,993.85
2018-03-30T10:46:29.650Z,993.84
2018-03-30T10:47:29.644Z,993.81
2018-03-30T10:48:29.637Z,993.8
2018-03-30T10:49:29.632Z,993.81
2018-03-30T10:50:29.628Z,993.84
2018-03-30T10:51:29.622Z,993.8
2018-03-30T10:52:29.632Z,993.81
2018-03-30T10:53:29.613Z,993.81
2018-03-30T10:54:29.617Z,993.81
2018-03-30T10:55:29.643Z,993.82
2018-03-30T10:56:29.618Z,993.74
2018-03-30T10:57:29.587Z,993.75
2018-03-30T10:58:29.583Z,993.71
2018-03-30T10:59:29.577Z,993.7
2018-03-30T11:00:29.571Z,993.59
2018-03-30T11:01:29.565Z,993.65
2018-03-30T11:02:29.567Z,993.67
2018-03-30T11:03:29.559Z,993.58
2018-03-30T11:04:29.551Z,993.55
2018-03-30T11:05:29.546Z,993.55
2018-03-30T11:06:29.592Z,993.6
2018-03-30T11:07:29.534Z,993.58
2018-03-30T11:08:29.579Z,993.59
2018-03-30T11:09:29.559Z,993.65
2018-03-30T11:10:29.668Z,993.58
2018-03-30T11:11:29.519Z,993.61
2018-03-30T11:12:29.510Z,993.55
2018-03-30T11:13:29.509Z,993.61
2018-03-30T11:14:29.502Z,993.58
2018-03-30T11:15:29.496Z,993.55
2018-03-30T11:16:29.521Z,993.54
2018-03-30T11:17:29.484Z,993.48
2018-03-30T11:18:29.478Z,993.47
2018-03-30T11:19:29.473Z,993.41
2018-03-30T11:20:29.472Z,993.41
2018-03-30T11:21:29.462Z,993.48
2018-03-30T11:22:29.457Z,993.41
2018-03-30T11:23:29.456Z,993.34
2018-03-30T11:24:29.648Z,993.31
2018-03-30T11:25:29.489Z,993.31
2018-03-30T11:26:29.436Z,993.28
2018-03-30T11:27:29.434Z,993.3
2018-03-30T11:28:29.424Z,993.26
2018-03-30T11:29:29.426Z,993.33
2018-03-30T11:30:29.415Z,993.34
2018-03-30T11:31:29.404Z,993.31
2018-03-30T11:32:29.398Z,993.3
2018-03-30T11:33:29.407Z,993.27
2018-03-30T11:34:29.406Z,993.25
2018-03-30T11:35:29.429Z,993.24
2018-03-30T11:36:29.459Z,993.25
2018-03-30T11:37:29.374Z,993.17
2018-03-30T11:38:29.370Z,993.05
2018-03-30T11:39:29.364Z,993.04
2018-03-30T11:40:29.361Z,993.03
2018-03-30T11:41:29.359Z,992.96
2018-03-30T11:42:29.361Z,992.97
2018-03-30T11:43:29.364Z,992.93
2018-03-30T11:44:29.350Z,992.94
2018-03-30T11:45:29.375Z,992.91
2018-03-30T11:46:29.348Z,992.9
2018-03-30T11:47:29.361Z,992.91
2018-03-30T11:48:29.341Z,992.81
2018-03-30T11:49:29.345Z,992.86
2018-03-30T11:50:29.392Z,992.86
2018-03-30T11:51:29.336Z,992.78
2018-03-30T11:52:29.336Z,992.78
2018-03-30T11:53:29.432Z,992.76
2018-03-30T11:54:29.347Z,992.74
2018-03-30T11:55:29.334Z,992.69
2018-03-30T11:56:29.341Z,992.67
2018-03-30T11:57:29.337Z,992.66
2018-03-30T11:58:29.335Z,992.67
2018-03-30T11:59:29.337Z,992.58
2018-03-30T12:00:29.390Z,992.56
2018-03-30T12:01:29.341Z,992.49
2018-03-30T12:02:29.418Z,992.47
2018-03-30T12:03:29.347Z,992.45
2018-03-30T12:04:29.352Z,992.42
2018-03-30T12:05:29.353Z,992.41
2018-03-30T12:06:29.387Z,992.41
2018-03-30T12:07:29.568Z,992.43
2018-03-30T12:08:29.361Z,992.4
2018-03-30T12:09:29.585Z,992.4
2018-03-30T12:10:29.430Z,992.4
2018-03-30T12:11:29.371Z,992.37
2018-03-30T12:12:29.375Z,992.32
2018-03-30T12:13:29.379Z,992.31
2018-03-30T12:14:29.398Z,992.31
2018-03-30T12:15:29.391Z,992.28
2018-03-30T12:16:29.392Z,992.22
2018-03-30T12:17:29.395Z,992.25
2018-03-30T12:18:29.400Z,992.2
2018-03-30T12:19:29.397Z,992.23
2018-03-30T12:20:29.406Z,992.19
2018-03-30T12:21:29.405Z,992.16
2018-03-30T12:22:29.409Z,992.2
2018-03-30T12:23:29.414Z,992.16
2018-03-30T12:24:29.417Z,992.24
2018-03-30T12:25:29.425Z,992.14
2018-03-30T12:26:29.423Z,992.17
2018-03-30T12:27:29.427Z,992.29
2018-03-30T12:28:29.430Z,992.26
2018-03-30T12:29:29.434Z,992.29
2018-03-30T12:30:29.436Z,992.35
2018-03-30T12:31:29.441Z,992.3